Temp: 14.0°C   Baro: 1018.7mb
  Wind: 4.9mph   Dir: WNW (299°)
  Rain: 0.0mm (0.0mm/hr)
  Solar: 281W/m2  Hum: 71%
 
Bath Spa Weather Station Historical Data
Daily Summary for December 4, 2019 Units:  Metric    English   Both
Daily Weekly Monthly Yearly Custom
  High: Low: Average:
Temperature: 8.8 °C -0.7 °C 1.9 °C
Dew Point: 5.6 °C -1.8 °C 0.5 °C
Humidity: 95% 77.8% 90%
Wind Speed: 4.7km/h 0km/h 0.2km/h
Wind Gust: 9.7km/h - -
Wind- - SSW
Pressure: 1022.2 hPa 1019.2 hPa -
Precipitation: 0.25 mm    
Historical Graphs
 
 
Tabular Data for December 4, 2019
Time Temperature Dew Point Pressure Wind Wind Speed Wind Gust Humidity Rainfall Rate (Hourly) solar
00:04 1.3 °C 0 °C 1022.2 hPa Calm     91% 0 mm 0 W/m2
00:09 1.2 °C -0.1 °C 1022.2 hPa Calm     91% 0 mm 0 W/m2
00:14 1.2 °C -0.1 °C 1022.2 hPa Calm     91% 0 mm 0 W/m2
00:19 1.2 °C -0.1 °C 1022.2 hPa Calm     91% 0 mm 0 W/m2
00:24 1.2 °C -0.2 °C 1022.2 hPa Calm     91% 0 mm 0 W/m2
00:29 1.1 °C -0.2 °C 1022.2 hPa Calm     91% 0 mm 0 W/m2
00:34 1.1 °C -0.2 °C 1022.2 hPa Calm     91% 0 mm 0 W/m2
00:39 1.1 °C -0.2 °C 1022.2 hPa Calm     91.6% 0 mm 0 W/m2
00:44 0.9 °C -0.3 °C 1022.2 hPa Calm     91% 0 mm 0 W/m2
00:49 0.9 °C -0.4 °C 1021.9 hPa Calm     91% 0 mm 0 W/m2
00:54 0.9 °C -0.3 °C 1021.9 hPa Calm     91.3% 0 mm 0 W/m2
00:59 0.9 °C -0.3 °C 1021.9 hPa Calm     91.8% 0 mm 0 W/m2
01:04 0.8 °C -0.3 °C 1021.9 hPa Calm     92% 0 mm 0 W/m2
01:09 0.8 °C -0.3 °C 1021.9 hPa Calm     92% 0 mm 0 W/m2
01:14 0.8 °C -0.4 °C 1021.9 hPa Calm     92% 0 mm 0 W/m2
01:19 0.8 °C -0.4 °C 1021.9 hPa Calm     92% 0 mm 0 W/m2
01:24 0.7 °C -0.4 °C 1021.6 hPa Calm     92% 0 mm 0 W/m2
01:29 0.7 °C -0.5 °C 1021.9 hPa Calm     92% 0 mm 0 W/m2
01:34 0.6 °C -0.5 °C 1021.6 hPa Calm     92% 0 mm 0 W/m2
01:39 0.6 °C -0.6 °C 1021.6 hPa Calm     92% 0 mm 0 W/m2
01:44 0.5 °C -0.6 °C 1021.6 hPa Calm     92% 0 mm 0 W/m2
01:49 0.5 °C -0.6 °C 1021.6 hPa Calm     92% 0 mm 0 W/m2
01:54 0.4 °C -0.7 °C 1021.6 hPa Calm     92% 0 mm 0 W/m2
01:59 0.4 °C -0.7 °C 1021.2 hPa Calm     92% 0 mm 0 W/m2
02:04 0.3 °C -0.8 °C 1021.2 hPa Calm     92% 0 mm 0 W/m2
02:09 0.3 °C -0.8 °C 1021.2 hPa Calm     92% 0 mm 0 W/m2
02:14 0.2 °C -0.9 °C 1021.2 hPa Calm     92% 0 mm 0 W/m2
02:19 0.1 °C -1 °C 1021.2 hPa Calm     92% 0 mm 0 W/m2
02:24 -0.1 °C -1.2 °C 1021.2 hPa Calm     92% 0 mm 0 W/m2
02:29 -0.1 °C -1.2 °C 1021.6 hPa Calm     92% 0 mm 0 W/m2
02:34 0 °C -1.1 °C 1021.6 hPa Calm     92% 0 mm 0 W/m2
02:39 0.1 °C -1 °C 1021.6 hPa Calm     92% 0 mm 0 W/m2
02:44 0.1 °C -1 °C 1021.2 hPa Calm     92% 0 mm 0 W/m2
02:49 0.1 °C -1 °C 1021.2 hPa Calm     92% 0 mm 0 W/m2
02:54 0.2 °C -0.9 °C 1021.2 hPa Calm     92% 0 mm 0 W/m2
02:59 0.2 °C -0.9 °C 1021.2 hPa Calm     92% 0 mm 0 W/m2
03:04 0.3 °C -0.8 °C 1021.2 hPa Calm     92% 0 mm 0 W/m2
03:09 0.3 °C -0.8 °C 1020.9 hPa Calm     92% 0 mm 0 W/m2
03:14 0.4 °C -0.7 °C 1020.9 hPa Calm     92% 0 mm 0 W/m2
03:19 0.4 °C -0.6 °C 1020.9 hPa Calm     93% 0 mm 0 W/m2
03:24 0.4 °C -0.6 °C 1020.9 hPa Calm     93% 0 mm 0 W/m2
03:29 0.3 °C -0.7 °C 1020.5 hPa Calm     92.8% 0 mm 0 W/m2
03:34 0.2 °C -0.9 °C 1020.5 hPa Calm     92% 0 mm 0 W/m2
03:39 0.2 °C -0.9 °C 1020.5 hPa Calm     92% 0 mm 0 W/m2
03:44 0.2 °C -0.9 °C 1020.5 hPa Calm     92% 0 mm 0 W/m2
03:49 0.2 °C -0.9 °C 1020.5 hPa Calm     92% 0 mm 0 W/m2
03:54 0.2 °C -0.9 °C 1020.5 hPa Calm     92.2% 0 mm 0 W/m2
03:59 0.2 °C -0.8 °C 1020.5 hPa Calm     92.6% 0 mm 0 W/m2
04:04 0.2 °C -0.8 °C 1020.5 hPa Calm     93% 0 mm 0 W/m2
04:09 0.2 °C -0.8 °C 1020.5 hPa Calm     93% 0 mm 0 W/m2
04:14 0.2 °C -0.8 °C 1020.5 hPa Calm     93% 0 mm 0 W/m2
04:19 0.2 °C -0.8 °C 1020.5 hPa Calm     93% 0 mm 0 W/m2
04:24 0.2 °C -0.8 °C 1020.2 hPa Calm     93% 0 mm 0 W/m2
04:29 0.2 °C -0.8 °C 1020.2 hPa Calm     93% 0 mm 0 W/m2
04:34 0.1 °C -0.9 °C 1020.2 hPa Calm     93% 0 mm 0 W/m2
04:39 0 °C -1 °C 1020.2 hPa Calm     93% 0 mm 0 W/m2
04:44 0.1 °C -0.9 °C 1020.2 hPa Calm     93% 0 mm 0 W/m2
04:49 0.2 °C -0.8 °C 1020.2 hPa Calm     93% 0 mm 0 W/m2
04:54 0.2 °C -0.8 °C 1020.2 hPa Calm     93% 0 mm 0 W/m2
04:59 0.1 °C -0.9 °C 1019.9 hPa Calm     93% 0 mm 0 W/m2
05:04 0 °C -1 °C 1019.9 hPa Calm     93% 0 mm 0 W/m2
05:09 -0.1 °C -1.1 °C 1019.9 hPa Calm     93% 0 mm 0 W/m2
05:14 -0.2 °C -1.2 °C 1019.9 hPa Calm     93% 0 mm 0 W/m2
05:19 -0.2 °C -1.2 °C 1019.9 hPa Calm     93% 0 mm 0 W/m2
05:23 -0.2 °C -1.2 °C 1019.9 hPa Calm     93% 0 mm 0 W/m2
05:29 -0.3 °C -1.3 °C 1019.9 hPa Calm     93% 0 mm 0 W/m2
05:34 -0.3 °C -1.3 °C 1019.9 hPa Calm     93% 0 mm 0 W/m2
05:39 -0.3 °C -1.3 °C 1019.9 hPa Calm     93% 0 mm 0 W/m2
05:44 -0.3 °C -1.3 °C 1019.9 hPa Calm     93% 0 mm 0 W/m2
05:49 -0.3 °C -1.3 °C 1019.9 hPa Calm     93% 0 mm 0 W/m2
05:53 -0.4 °C -1.4 °C 1019.9 hPa Calm     93% 0 mm 0 W/m2
05:59 -0.3 °C -1.3 °C 1019.5 hPa Calm     93% 0 mm 0 W/m2
06:04 -0.2 °C -1.2 °C 1019.5 hPa Calm     93% 0 mm 0 W/m2
06:09 -0.2 °C -1.2 °C 1019.5 hPa Calm     93% 0 mm 0 W/m2
06:14 -0.2 °C -1.2 °C 1019.5 hPa Calm     93% 0 mm 0 W/m2
06:19 -0.4 °C -1.4 °C 1019.5 hPa Calm     93% 0 mm 0 W/m2
06:23 -0.3 °C -1.3 °C 1019.5 hPa Calm     93% 0 mm 0 W/m2
06:29 -0.3 °C -1.3 °C 1019.5 hPa Calm     93% 0 mm 0 W/m2
06:34 -0.4 °C -1.4 °C 1019.5 hPa Calm     93% 0 mm 0 W/m2
06:39 -0.6 °C -1.6 °C 1019.5 hPa Calm     93% 0 mm 0 W/m2
06:44 -0.4 °C -1.4 °C 1019.5 hPa Calm     93% 0 mm 0 W/m2
06:49 -0.4 °C -1.3 °C 1019.5 hPa Calm     93.8% 0 mm 0 W/m2
06:54 -0.4 °C -1.2 °C 1019.5 hPa Calm     94% 0 mm 0 W/m2
06:59 -0.4 °C -1.2 °C 1019.9 hPa Calm     94% 0 mm 0 W/m2
07:04 -0.6 °C -1.5 °C 1019.9 hPa Calm     93.4% 0 mm 0 W/m2
07:09 -0.6 °C -1.6 °C 1019.9 hPa Calm     93% 0 mm 0 W/m2
07:14 -0.5 °C -1.3 °C 1019.9 hPa Calm     94% 0 mm 0 W/m2
07:19 -0.6 °C -1.4 °C 1019.9 hPa Calm     94% 0 mm 0 W/m2
07:24 -0.5 °C -1.3 °C 1019.9 hPa Calm     94% 0 mm 0 W/m2
07:29 -0.6 °C -1.4 °C 1019.9 hPa Calm     94% 0 mm 0 W/m2
07:34 -0.4 °C -1.3 °C 1020.2 hPa Calm     94% 0 mm 0 W/m2
07:39 -0.4 °C -1.2 °C 1020.2 hPa Calm     94% 0 mm 0 W/m2
07:44 -0.4 °C -1.2 °C 1020.2 hPa Calm     94% 0 mm 0 W/m2
07:49 -0.2 °C -1 °C 1020.2 hPa Calm     94% 0 mm 0 W/m2
07:54 -0.2 °C -1 °C 1020.2 hPa Calm     94% 0 mm 0 W/m2
07:59 -0.3 °C -1.1 °C 1019.9 hPa Calm     94% 0 mm 5 W/m2
08:04 -0.3 °C -1.1 °C 1019.9 hPa Calm     94% 0 mm 5 W/m2
08:09 -0.2 °C -1 °C 1019.9 hPa Calm     94% 0 mm 7 W/m2
08:14 -0.2 °C -1.1 °C 1019.9 hPa Calm     94% 0 mm 11 W/m2
08:19 -0.3 °C -1.2 °C 1020.2 hPa Calm     94% 0 mm 12 W/m2
08:24 -0.4 °C -1.2 °C 1020.2 hPa Calm     94% 0 mm 12 W/m2
08:29 -0.4 °C -1.2 °C 1020.2 hPa Calm     94% 0 mm 16 W/m2
08:34 -0.3 °C -1.2 °C 1020.2 hPa Calm     94% 0 mm 18 W/m2
08:39 -0.2 °C -1.1 °C 1020.2 hPa Calm     94% 0 mm 25 W/m2
08:44 -0.2 °C -1 °C 1020.2 hPa Calm     94% 0 mm 26 W/m2
08:49 -0.2 °C -1 °C 1020.5 hPa Calm     94% 0 mm 35 W/m2
08:54 -0.1 °C -0.9 °C 1020.5 hPa Calm     94% 0 mm 40 W/m2
08:59 -0.1 °C -0.9 °C 1020.5 hPa Calm     94% 0 mm 51 W/m2
09:04 -0.1 °C -0.9 °C 1020.5 hPa Calm     94% 0 mm 51 W/m2
09:09 -0.2 °C -1 °C 1020.5 hPa Calm     94% 0 mm 47 W/m2
09:14 -0.2 °C -0.9 °C 1020.5 hPa Calm     94% 0 mm 46 W/m2
09:19 -0.1 °C -0.9 °C 1020.5 hPa Calm     94% 0 mm 56 W/m2
09:24 -0.2 °C -0.9 °C 1020.5 hPa Calm     94% 0 mm 63 W/m2
09:29 -0.1 °C -0.8 °C 1020.5 hPa Calm     94% 0 mm 62 W/m2
09:34 0 °C -0.8 °C 1020.5 hPa Calm     94% 0 mm 63 W/m2
09:39 0 °C -0.8 °C 1020.5 hPa Calm     94% 0 mm 72 W/m2
09:44 0.1 °C -0.8 °C 1020.5 hPa Calm     94% 0 mm 81 W/m2
09:49 0.2 °C -0.7 °C 1020.5 hPa Calm     94.4% 0 mm 95 W/m2
09:54 0.3 °C -0.6 °C 1020.5 hPa Calm     94.2% 0 mm 102 W/m2
09:59 0.4 °C -0.4 °C 1020.5 hPa Calm     94.2% 0 mm 105 W/m2
10:04 0.7 °C 0 °C 1020.9 hPa Calm     94.8% 0.25 mm 111 W/m2
10:09 1.1 °C 0.4 °C 1020.9 hPa Calm     95% 0.25 mm 93 W/m2
10:14 1.2 °C 0.5 °C 1020.9 hPa Calm     95% 0.25 mm 97 W/m2
10:19 1.2 °C 0.6 °C 1020.5 hPa Calm     95% 0.25 mm 72 W/m2
10:24 1.1 °C 0.4 °C 1020.5 hPa Calm     95% 0.25 mm 127 W/m2
10:29 1.6 °C 0.9 °C 1020.5 hPa Calm     95% 0.25 mm 134 W/m2
10:34 1.8 °C 1.1 °C 1020.5 hPa Calm     95% 0.25 mm 171 W/m2
10:39 1.9 °C 1.3 °C 1020.5 hPa Calm     95% 0.25 mm 197 W/m2
10:44 2.5 °C 1.8 °C 1020.5 hPa Calm     95% 0.25 mm 185 W/m2
10:49 2.7 °C 1.9 °C 1020.5 hPa Calm     95% 0.25 mm 165 W/m2
10:54 2.7 °C 2.1 °C 1020.5 hPa Calm     95% 0.25 mm 165 W/m2
10:59 3.1 °C 2.4 °C 1020.5 hPa Calm     95% 0.25 mm 202 W/m2
11:04 3.5 °C 2.8 °C 1020.2 hPa Calm     95% 0.25 mm 239 W/m2
11:09 3.7 °C 3 °C 1020.2 hPa Calm     95% 0 mm 234 W/m2
11:14 4.4 °C 3.6 °C 1019.9 hPa Calm     94.4% 0 mm 185 W/m2
11:19 4.3 °C 3.4 °C 1019.9 hPa Calm     94% 0 mm 163 W/m2
11:24 4.4 °C 3.4 °C 1020.2 hPa Calm     93.4% 0 mm 167 W/m2
11:29 4.7 °C 3.6 °C 1019.9 hPa Calm     92.6% 0 mm 171 W/m2
11:34 4.7 °C 3.4 °C 1019.9 hPa Calm     91.6% 0 mm 176 W/m2
11:39 4.7 °C 3.3 °C 1019.9 hPa Calm     90.6% 0 mm 179 W/m2
11:44 5.1 °C 3.6 °C 1019.9 hPa Calm     90% 0 mm 179 W/m2
11:49 5.7 °C 4 °C 1019.9 hPa Calm     89% 0 mm 181 W/m2
11:54 6.2 °C 4.4 °C 1019.9 hPa Calm     88.4% 0 mm 185 W/m2
11:59 6.4 °C 4.5 °C 1019.9 hPa Calm     87.2% 0 mm 186 W/m2
12:04 6.5 °C 4.2 °C 1019.9 hPa Calm     85.4% 0 mm 188 W/m2
12:09 6.3 °C 4 °C 1019.9 hPa Calm     85% 0 mm 188 W/m2
12:14 6.2 °C 3.8 °C 1019.9 hPa Calm     85% 0 mm 188 W/m2
12:19 6.7 °C 4.4 °C 1019.9 hPa Calm     85.3% 0 mm 188 W/m2
12:24 7.5 °C 5.1 °C 1019.9 hPa Calm     84.8% 0 mm 188 W/m2
12:29 7.8 °C 5.1 °C 1019.9 hPa Calm     83% 0 mm 188 W/m2
12:34 7.3 °C 4.3 °C 1019.9 hPa Calm     81.4% 0 mm 188 W/m2
12:39 6.8 °C 4 °C 1019.9 hPa Calm     82.3% 0 mm 188 W/m2
12:44 6.7 °C 4 °C 1019.9 hPa Calm     83% 0 mm 186 W/m2
12:49 6.7 °C 4.2 °C 1019.9 hPa Calm     84% 0 mm 185 W/m2
12:54 6.8 °C 4.3 °C 1019.5 hPa Calm     84% 0 mm 181 W/m2
12:59 7.2 °C 4.7 °C 1019.5 hPa Calm     84% 0 mm 178 W/m2
13:04 7.4 °C 4.8 °C 1019.5 hPa Calm     83.4% 0 mm 178 W/m2
13:09 7.6 °C 4.8 °C 1019.5 hPa SSW 0.6 km/h 3.2 km/h 82.6% 0 mm 174 W/m2
13:14 8.4 °C 5.6 °C 1019.5 hPa SSW 0.3 km/h 3.2 km/h 82.5% 0 mm 167 W/m2
13:19 8.6 °C 5.3 °C 1019.5 hPa Calm     80.2% 0 mm 162 W/m2
13:24 8.8 °C 5.4 °C 1019.5 hPa Calm     79% 0 mm 158 W/m2
13:29 8.2 °C 4.6 °C 1019.5 hPa SSW 0.6 km/h 3.2 km/h 77.8% 0 mm 155 W/m2
13:34 7.8 °C 4.4 °C 1019.5 hPa Calm     79.2% 0 mm 149 W/m2
13:39 7.7 °C 4.4 °C 1019.2 hPa Calm     80% 0 mm 151 W/m2
13:44 7.6 °C 4.4 °C 1019.2 hPa Calm     80.4% 0 mm 141 W/m2
13:49 7.4 °C 4.4 °C 1019.2 hPa SSW 2.7 km/h 6.4 km/h 81% 0 mm 130 W/m2
13:54 7.6 °C 4.6 °C 1019.5 hPa SSW 0.3 km/h 4.8 km/h 81.5% 0 mm 130 W/m2
13:59 7.7 °C 4.7 °C 1019.5 hPa SSW 2.6 km/h 4.8 km/h 81.4% 0 mm 74 W/m2
14:04 7.3 °C 4.3 °C 1019.2 hPa SSW 4.7 km/h 6.4 km/h 81% 0 mm 62 W/m2
14:09 7.2 °C 4.2 °C 1019.2 hPa SSW 2.9 km/h 6.4 km/h 81.2% 0 mm 104 W/m2
14:14 6.9 °C 4.1 °C 1019.2 hPa SSW 4 km/h 9.7 km/h 82% 0 mm 118 W/m2
14:19 6.7 °C 4 °C 1019.2 hPa SSW 2.7 km/h 8 km/h 82.8% 0 mm 79 W/m2
14:24 6.7 °C 3.9 °C 1019.2 hPa SSW 1.3 km/h 6.4 km/h 83% 0 mm 79 W/m2
14:29 6.7 °C 4.2 °C 1019.2 hPa SSW 0.6 km/h 3.2 km/h 83.8% 0 mm 83 W/m2
14:34 6.8 °C 4.3 °C 1019.2 hPa SSW 1.9 km/h 4.8 km/h 84% 0 mm 79 W/m2
14:39 6.7 °C 4.2 °C 1019.2 hPa SSW 0.6 km/h 3.2 km/h 84% 0 mm 86 W/m2
14:44 7.3 °C 4.8 °C 1019.2 hPa SSW 1 km/h 4.8 km/h 84% 0 mm 83 W/m2
14:49 7.7 °C 5 °C 1019.2 hPa Calm     83% 0 mm 74 W/m2
14:54 7.9 °C 4.9 °C 1019.2 hPa Calm     81.6% 0 mm 69 W/m2
14:59 8 °C 4.9 °C 1019.2 hPa Calm     81% 0 mm 49 W/m2
15:04 8.2 °C 5.1 °C 1019.2 hPa Calm     80.8% 0 mm 47 W/m2
15:09 8.1 °C 4.9 °C 1019.2 hPa Calm     80% 0 mm 42 W/m2
15:14 7.7 °C 4.5 °C 1019.2 hPa Calm     80% 0 mm 39 W/m2
15:19 7.4 °C 4.2 °C 1019.5 hPa Calm     80% 0 mm 39 W/m2
15:24 7.1 °C 4 °C 1019.5 hPa Calm     80.4% 0 mm 33 W/m2
15:29 6.9 °C 3.9 °C 1019.5 hPa Calm     81% 0 mm 30 W/m2
15:34 6.8 °C 3.9 °C 1019.5 hPa Calm     81.6% 0 mm 23 W/m2
15:39 6.8 °C 3.9 °C 1019.5 hPa Calm     82% 0 mm 19 W/m2
15:44 6.7 °C 3.8 °C 1019.5 hPa Calm     82% 0 mm 16 W/m2
15:49 6.6 °C 3.7 °C 1019.2 hPa Calm     82% 0 mm 12 W/m2
15:54 6.6 °C 3.8 °C 1019.2 hPa Calm     82.8% 0 mm 11 W/m2
15:59 6.4 °C 3.7 °C 1019.5 hPa Calm     83% 0 mm 9 W/m2
16:04 6.2 °C 3.4 °C 1019.5 hPa Calm     83% 0 mm 7 W/m2
16:09 5.8 °C 3.1 °C 1019.5 hPa Calm     83% 0 mm 5 W/m2
16:14 5.6 °C 3 °C 1019.5 hPa Calm     83.8% 0 mm 0 W/m2
16:19 5.4 °C 2.9 °C 1019.5 hPa Calm     84% 0 mm 0 W/m2
16:24 5.3 °C 2.8 °C 1019.5 hPa Calm     84% 0 mm 0 W/m2
16:28 5.2 °C 2.8 °C 1019.5 hPa Calm     84.5% 0 mm 0 W/m2
16:34 4.9 °C 2.7 °C 1019.5 hPa Calm     85% 0 mm 0 W/m2
16:39 4.7 °C 2.4 °C 1019.5 hPa Calm     85% 0 mm 0 W/m2
16:44 4.3 °C 2 °C 1019.5 hPa Calm     85% 0 mm 0 W/m2
16:49 4 °C 1.9 °C 1019.5 hPa Calm     86% 0 mm 0 W/m2
16:54 3.8 °C 1.7 °C 1019.9 hPa Calm     86% 0 mm 0 W/m2
16:59 3.7 °C 1.7 °C 1019.9 hPa Calm     86.5% 0 mm 0 W/m2
17:04 3.6 °C 1.6 °C 1020.2 hPa Calm     87% 0 mm 0 W/m2
17:09 3.3 °C 1.3 °C 1020.2 hPa Calm     87% 0 mm 0 W/m2
17:14 3.1 °C 1.1 °C 1020.2 hPa Calm     87% 0 mm 0 W/m2
17:19 3.1 °C 1.3 °C 1020.2 hPa Calm     88% 0 mm 0 W/m2
17:23 3.1 °C 1.3 °C 1020.2 hPa Calm     88% 0 mm 0 W/m2
17:29 3.1 °C 1.2 °C 1020.2 hPa Calm     88% 0 mm 0 W/m2
17:34 2.8 °C 1.1 °C 1020.5 hPa Calm     88% 0 mm 0 W/m2
17:39 2.6 °C 0.8 °C 1020.5 hPa Calm     88% 0 mm 0 W/m2
17:44 2.6 °C 0.9 °C 1020.5 hPa Calm     88.6% 0 mm 0 W/m2
17:49 2.5 °C 0.9 °C 1020.5 hPa Calm     89% 0 mm 0 W/m2
17:54 2.4 °C 0.8 °C 1020.5 hPa Calm     89% 0 mm 0 W/m2
17:59 2.3 °C 0.7 °C 1020.5 hPa Calm     89% 0 mm 0 W/m2
18:04 2.1 °C 0.5 °C 1020.5 hPa Calm     89% 0 mm 0 W/m2
18:09 2.1 °C 0.4 °C 1020.5 hPa Calm     89% 0 mm 0 W/m2
18:14 2.1 °C 0.5 °C 1020.5 hPa Calm     89.4% 0 mm 0 W/m2
18:19 1.9 °C 0.4 °C 1020.5 hPa Calm     90% 0 mm 0 W/m2
18:24 1.9 °C 0.4 °C 1020.5 hPa Calm     90% 0 mm 0 W/m2
18:29 1.9 °C 0.4 °C 1020.5 hPa Calm     90% 0 mm 0 W/m2
18:34 1.9 °C 0.4 °C 1020.5 hPa Calm     90% 0 mm 0 W/m2
18:39 1.8 °C 0.3 °C 1020.5 hPa Calm     90% 0 mm 0 W/m2
18:44 1.8 °C 0.3 °C 1020.5 hPa Calm     90% 0 mm 0 W/m2
18:49 1.7 °C 0.2 °C 1020.5 hPa Calm     90% 0 mm 0 W/m2
18:54 1.3 °C -0.2 °C 1020.5 hPa Calm     90% 0 mm 0 W/m2
18:59 1.3 °C -0.2 °C 1020.5 hPa Calm     90% 0 mm 0 W/m2
19:04 1.4 °C -0.1 °C 1020.5 hPa Calm     90% 0 mm 0 W/m2
19:09 1.4 °C -0.1 °C 1020.5 hPa Calm     90% 0 mm 0 W/m2
19:14 1.3 °C -0.1 °C 1020.5 hPa Calm     90.8% 0 mm 0 W/m2
19:19 1.2 °C -0.1 °C 1020.5 hPa Calm     91% 0 mm 0 W/m2
19:24 1.1 °C -0.2 °C 1020.5 hPa Calm     91% 0 mm 0 W/m2
19:29 1.2 °C -0.1 °C 1020.5 hPa Calm     91% 0 mm 0 W/m2
19:34 1.2 °C -0.1 °C 1020.5 hPa Calm     91% 0 mm 0 W/m2
19:39 1 °C -0.3 °C 1020.5 hPa Calm     91% 0 mm 0 W/m2
19:44 0.9 °C -0.4 °C 1020.5 hPa Calm     91% 0 mm 0 W/m2
19:49 0.9 °C -0.4 °C 1020.5 hPa Calm     91% 0 mm 0 W/m2
19:54 0.8 °C -0.5 °C 1020.5 hPa Calm     91% 0 mm 0 W/m2
19:59 0.9 °C -0.4 °C 1020.5 hPa Calm     91% 0 mm 0 W/m2
20:04 0.9 °C -0.4 °C 1020.5 hPa Calm     91% 0 mm 0 W/m2
20:09 0.9 °C -0.4 °C 1020.5 hPa Calm     91% 0 mm 0 W/m2
20:14 0.8 °C -0.4 °C 1020.5 hPa Calm     91% 0 mm 0 W/m2
20:19 0.8 °C -0.5 °C 1020.5 hPa Calm     91% 0 mm 0 W/m2
20:24 0.6 °C -0.7 °C 1020.5 hPa Calm     91% 0 mm 0 W/m2
20:29 0.4 °C -0.9 °C 1020.5 hPa Calm     91% 0 mm 0 W/m2
20:34 0.4 °C -0.7 °C 1020.5 hPa Calm     91.8% 0 mm 0 W/m2
20:39 0.5 °C -0.6 °C 1020.5 hPa Calm     92% 0 mm 0 W/m2
20:44 0.5 °C -0.6 °C 1020.5 hPa Calm     92% 0 mm 0 W/m2
20:49 0.5 °C -0.6 °C 1020.5 hPa Calm     92% 0 mm 0 W/m2
20:54 0.4 °C -0.7 °C 1020.9 hPa Calm     92% 0 mm 0 W/m2
20:59 0.4 °C -0.7 °C 1020.5 hPa Calm     92% 0 mm 0 W/m2
21:04 0.3 °C -0.8 °C 1020.9 hPa Calm     92% 0 mm 0 W/m2
21:09 0.3 °C -0.8 °C 1020.9 hPa Calm     92% 0 mm 0 W/m2
21:14 0.2 °C -0.9 °C 1020.9 hPa Calm     92% 0 mm 0 W/m2
21:19 0.1 °C -1 °C 1020.9 hPa Calm     92% 0 mm 0 W/m2
21:24 -0.1 °C -1.2 °C 1020.9 hPa Calm     92% 0 mm 0 W/m2
21:29 -0.1 °C -1.2 °C 1020.9 hPa Calm     92% 0 mm 0 W/m2
21:34 -0.1 °C -1.2 °C 1021.2 hPa Calm     92% 0 mm 0 W/m2
21:39 0 °C -1.1 °C 1021.2 hPa Calm     92% 0 mm 0 W/m2
21:44 0 °C -1.1 °C 1021.2 hPa Calm     92% 0 mm 0 W/m2
21:49 -0.1 °C -1.2 °C 1021.2 hPa Calm     92% 0 mm 0 W/m2
21:54 -0.1 °C -1.2 °C 1021.2 hPa Calm     92% 0 mm 0 W/m2
21:59 -0.2 °C -1.3 °C 1021.2 hPa Calm     92% 0 mm 0 W/m2
22:04 -0.2 °C -1.3 °C 1021.2 hPa Calm     92% 0 mm 0 W/m2
22:09 -0.2 °C -1.3 °C 1021.2 hPa Calm     92% 0 mm 0 W/m2
22:14 -0.3 °C -1.4 °C 1021.2 hPa Calm     92% 0 mm 0 W/m2
22:19 -0.3 °C -1.4 °C 1021.2 hPa Calm     92% 0 mm 0 W/m2
22:24 -0.3 °C -1.4 °C 1021.2 hPa Calm     92% 0 mm 0 W/m2
22:29 -0.4 °C -1.5 °C 1021.2 hPa Calm     92% 0 mm 0 W/m2
22:34 -0.4 °C -1.6 °C 1021.2 hPa Calm     92% 0 mm 0 W/m2
22:39 -0.4 °C -1.6 °C 1021.6 hPa Calm     92% 0 mm 0 W/m2
22:44 -0.4 °C -1.5 °C 1021.6 hPa Calm     92% 0 mm 0 W/m2
22:49 -0.4 °C -1.6 °C 1021.2 hPa Calm     92% 0 mm 0 W/m2
22:54 -0.5 °C -1.6 °C 1021.2 hPa Calm     92% 0 mm 0 W/m2
22:59 -0.5 °C -1.6 °C 1021.2 hPa Calm     92% 0 mm 0 W/m2
23:04 -0.6 °C -1.7 °C 1021.2 hPa Calm     92% 0 mm 0 W/m2
23:09 -0.6 °C -1.7 °C 1021.2 hPa Calm     92% 0 mm 0 W/m2
23:14 -0.7 °C -1.8 °C 1021.2 hPa Calm     92% 0 mm 0 W/m2
23:19 -0.7 °C -1.8 °C 1021.2 hPa Calm     92% 0 mm 0 W/m2
23:24 -0.6 °C -1.7 °C 1021.2 hPa Calm     92.2% 0 mm 0 W/m2
23:29 -0.6 °C -1.6 °C 1021.6 hPa Calm     93% 0 mm 0 W/m2
23:33 -0.6 °C -1.6 °C 1021.6 hPa Calm     93% 0 mm 0 W/m2
23:39 -0.7 °C -1.7 °C 1021.6 hPa Calm     93% 0 mm 0 W/m2
23:44 -0.7 °C -1.7 °C 1021.6 hPa Calm     93% 0 mm 0 W/m2
23:49 -0.7 °C -1.7 °C 1021.6 hPa Calm     93% 0 mm 0 W/m2
23:54 -0.7 °C -1.7 °C 1021.6 hPa Calm     93% 0 mm 0 W/m2
23:59 -0.7 °C -1.7 °C 1021.6 hPa Calm     93% 0 mm 0 W/m2
Bath Spa Weather
Compliments of Weather Underground - 2 mb